Time;durP1;ratioP1;P1;durP2;ratioP2;P2;SDS_P1;SDS_P2;PMS_P1;PMS_P2;Temp;Humidity;BMP_temperature;BMP_pressure;BME280_temperature;BME280_humidity;BME280_pressure;Samples;Min_cycle;Max_cycle;Signal;HPM_P1;HPM_P2
2023/06/22 00:01:17;;;;;;;;;1.00;1.00;;;;;;;;4964221;28;46238;-67
2023/06/22 00:03:42;;;;;;;;;2.50;1.00;;;;;;;;4958202;28;45618;-68
2023/06/22 00:06:07;;;;;;;;;4.25;1.75;;;;;;;;4970715;28;45798;-68
2023/06/22 00:08:32;;;;;;;;;1.50;1.50;;;;;;;;4964097;28;45544;-68
2023/06/22 00:10:58;;;;;;;;;4.75;3.00;;;;;;;;4964787;28;46148;-68
2023/06/22 00:13:23;;;;;;;;;0.50;0.50;;;;;;;;4961036;28;45654;-67
2023/06/22 00:15:48;;;;;;;;;1.00;1.00;;;;;;;;4965434;28;45367;-67
2023/06/22 00:18:13;;;;;;;;;2.75;2.75;;;;;;;;4954832;28;45453;-68
2023/06/22 00:20:39;;;;;;;;;1.50;1.50;;;;;;;;4954571;28;47330;-68
2023/06/22 00:23:08;;;;;;;;;0.75;0.75;;;;;;;;4957955;28;45334;-68
2023/06/22 00:25:42;;;;;;;;;1.25;1.25;;;;;;;;4958550;28;45558;-68
2023/06/22 00:28:07;;;;;;;;;3.00;1.75;;;;;;;;4955081;28;45576;-68
2023/06/22 00:30:33;;;;;;;;;2.25;2.25;;;;;;;;4958634;28;46317;-68
2023/06/22 00:32:59;;;;;;;;;2.50;1.75;;;;;;;;4963610;28;45467;-68
2023/06/22 00:35:28;;;;;;;;;1.25;1.25;;;;;;;;4954879;28;45383;-68
2023/06/22 00:38:00;;;;;;;;;0.75;0.75;;;;;;;;4954020;28;45539;-68
2023/06/22 00:40:25;;;;;;;;;1.25;1.25;;;;;;;;4969578;28;45463;-68
2023/06/22 00:42:50;;;;;;;;;4.00;3.00;;;;;;;;4965937;28;45535;-68
2023/06/22 00:45:15;;;;;;;;;3.75;2.50;;;;;;;;4967968;28;45563;-67
2023/06/22 00:47:43;;;;;;;;;2.25;2.25;;;;;;;;4955246;28;45437;-68
2023/06/22 00:50:11;;;;;;;;;1.75;1.25;;;;;;;;4958353;28;46475;-67
2023/06/22 00:52:36;;;;;;;;;1.00;1.00;;;;;;;;4972066;28;45458;-67
2023/06/22 00:55:02;;;;;;;;;2.50;2.50;;;;;;;;4968069;28;45585;-68
2023/06/22 00:57:27;;;;;;;;;1.00;1.00;;;;;;;;4962878;28;45532;-68
2023/06/22 00:59:53;;;;;;;;;2.75;1.75;;;;;;;;4975551;28;46262;-68
2023/06/22 01:02:18;;;;;;;;;1.00;1.00;;;;;;;;4957934;28;45472;-68
2023/06/22 01:04:44;;;;;;;;;3.00;2.00;;;;;;;;4958012;28;45514;-68
2023/06/22 01:07:32;;;;;;;;;1.75;1.75;;;;;;;;4957053;28;45393;-68
2023/06/22 01:10:06;;;;;;;;;2.25;2.25;;;;;;;;4957485;28;46595;-68
2023/06/22 01:12:34;;;;;;;;;1.00;1.00;;;;;;;;4970010;28;45370;-67
2023/06/22 01:15:08;;;;;;;;;2.00;2.00;;;;;;;;4972588;28;45434;-67
2023/06/22 01:17:34;;;;;;;;;3.00;2.00;;;;;;;;4974740;28;45577;-67
2023/06/22 01:20:00;;;;;;;;;2.00;2.00;;;;;;;;4974548;28;47333;-67
2023/06/22 01:22:29;;;;;;;;;1.25;1.25;;;;;;;;4974942;28;45365;-67
2023/06/22 01:25:04;;;;;;;;;3.00;3.00;;;;;;;;4974900;28;45504;-67
2023/06/22 01:27:41;;;;;;;;;2.75;2.00;;;;;;;;4974772;28;45541;-67
2023/06/22 01:30:10;;;;;;;;;2.25;1.00;;;;;;;;4974640;28;46137;-67
2023/06/22 01:32:36;;;;;;;;;2.25;2.25;;;;;;;;4975014;28;45446;-67
2023/06/22 01:35:03;;;;;;;;;1.00;1.00;;;;;;;;4974690;28;45423;-67
2023/06/22 01:37:28;;;;;;;;;2.00;2.00;;;;;;;;4975172;28;45744;-67
2023/06/22 01:39:55;;;;;;;;;2.00;2.00;;;;;;;;4974239;28;46588;-67
2023/06/22 01:42:21;;;;;;;;;3.00;3.00;;;;;;;;4974719;28;45482;-67
2023/06/22 01:44:46;;;;;;;;;1.25;1.25;;;;;;;;4974689;28;45508;-67
2023/06/22 01:47:13;;;;;;;;;1.75;1.75;;;;;;;;4976289;28;45461;-67
2023/06/22 01:49:39;;;;;;;;;1.00;1.00;;;;;;;;4976742;28;45321;-67
2023/06/22 01:52:05;;;;;;;;;1.75;1.75;;;;;;;;4976519;28;45338;-67
2023/06/22 01:54:30;;;;;;;;;4.00;2.75;;;;;;;;4976523;28;45389;-67
2023/06/22 01:56:55;;;;;;;;;1.00;1.00;;;;;;;;4976620;28;45318;-67
2023/06/22 01:59:26;;;;;;;;;3.25;3.25;;;;;;;;4976748;28;45322;-67
2023/06/22 02:02:00;;;;;;;;;2.75;2.75;;;;;;;;4975487;28;45418;-67
2023/06/22 02:04:46;;;;;;;;;1.75;1.75;;;;;;;;4975524;28;45317;-67
2023/06/22 02:07:13;;;;;;;;;2.50;1.75;;;;;;;;4976930;28;45438;-67
2023/06/22 02:09:40;;;;;;;;;2.25;2.25;;;;;;;;4976698;28;46710;-67
2023/06/22 02:12:07;;;;;;;;;3.25;2.00;;;;;;;;4975042;28;45283;-67
2023/06/22 02:14:33;;;;;;;;;1.75;1.75;;;;;;;;4973998;28;45384;-67
2023/06/22 02:17:01;;;;;;;;;1.00;1.00;;;;;;;;4975552;28;45383;-67
2023/06/22 02:19:27;;;;;;;;;3.00;2.00;;;;;;;;4975347;28;46402;-67
2023/06/22 02:21:52;;;;;;;;;2.00;2.00;;;;;;;;4975283;28;45457;-67
2023/06/22 02:24:17;;;;;;;;;3.00;3.00;;;;;;;;4976140;28;45412;-67
2023/06/22 02:26:44;;;;;;;;;3.00;3.00;;;;;;;;4976425;28;45438;-67
2023/06/22 02:29:09;;;;;;;;;1.50;1.50;;;;;;;;4976648;28;45439;-67
2023/06/22 02:31:34;;;;;;;;;2.00;2.00;;;;;;;;4976709;28;45518;-67
2023/06/22 02:34:00;;;;;;;;;1.25;0.00;;;;;;;;4976497;28;45499;-67
2023/06/22 02:36:26;;;;;;;;;2.25;2.25;;;;;;;;4976528;28;45314;-67
2023/06/22 02:38:52;;;;;;;;;2.50;2.50;;;;;;;;4976844;28;46196;-67
2023/06/22 02:41:21;;;;;;;;;2.75;2.25;;;;;;;;4975900;28;45509;-67
2023/06/22 02:43:46;;;;;;;;;3.25;2.50;;;;;;;;4976397;28;45985;-67
2023/06/22 02:46:12;;;;;;;;;2.50;2.50;;;;;;;;4976677;28;45404;-67
2023/06/22 02:48:38;;;;;;;;;3.00;3.00;;;;;;;;4976216;28;45500;-67
2023/06/22 02:51:03;;;;;;;;;4.00;2.00;;;;;;;;4976126;28;45456;-67
2023/06/22 02:53:28;;;;;;;;;2.25;2.25;;;;;;;;4973193;28;45386;-67
2023/06/22 02:55:53;;;;;;;;;3.75;3.00;;;;;;;;4956168;28;45522;-67
2023/06/22 02:58:18;;;;;;;;;4.25;4.25;;;;;;;;4956850;28;46234;-67
2023/06/22 03:00:44;;;;;;;;;2.00;2.00;;;;;;;;4956403;28;45271;-68
2023/06/22 03:03:09;;;;;;;;;4.25;2.50;;;;;;;;4957059;28;45318;-67
2023/06/22 03:05:35;;;;;;;;;3.00;3.00;;;;;;;;4957020;28;45355;-68
2023/06/22 03:08:00;;;;;;;;;2.00;2.00;;;;;;;;4956158;28;46331;-67
2023/06/22 03:10:26;;;;;;;;;3.00;3.00;;;;;;;;4956573;28;45364;-67
2023/06/22 03:12:51;;;;;;;;;2.50;2.50;;;;;;;;4956234;28;45372;-67
2023/06/22 03:15:17;;;;;;;;;1.75;1.75;;;;;;;;4956001;28;45436;-67
2023/06/22 03:17:42;;;;;;;;;4.50;2.25;;;;;;;;4954947;28;47497;-67
2023/06/22 03:20:09;;;;;;;;;3.00;3.00;;;;;;;;4956654;28;45349;-67
2023/06/22 03:22:40;;;;;;;;;4.75;4.00;;;;;;;;4956163;28;45276;-67
2023/06/22 03:25:13;;;;;;;;;2.00;2.00;;;;;;;;4954578;28;45516;-67
2023/06/22 03:27:38;;;;;;;;;2.75;2.00;;;;;;;;4955967;28;45461;-67
2023/06/22 03:30:04;;;;;;;;;3.75;2.00;;;;;;;;4956239;28;45579;-67
2023/06/22 03:32:29;;;;;;;;;4.00;3.00;;;;;;;;4956379;28;45267;-67
2023/06/22 03:34:58;;;;;;;;;2.50;2.50;;;;;;;;4954783;28;45362;-66
2023/06/22 03:37:24;;;;;;;;;3.75;3.75;;;;;;;;4955967;28;47293;-68
2023/06/22 03:39:49;;;;;;;;;2.00;2.00;;;;;;;;4954342;28;45465;-68
2023/06/22 03:42:14;;;;;;;;;3.00;2.00;;;;;;;;4962323;28;45344;-68
2023/06/22 03:44:39;;;;;;;;;2.50;2.00;;;;;;;;4975656;28;45413;-67
2023/06/22 03:47:07;;;;;;;;;3.00;2.75;;;;;;;;4975000;28;46244;-69
2023/06/22 03:49:32;;;;;;;;;5.00;5.00;;;;;;;;4974373;28;45396;-68
2023/06/22 03:51:57;;;;;;;;;3.00;3.00;;;;;;;;4975472;28;45385;-68
2023/06/22 03:54:22;;;;;;;;;5.00;4.00;;;;;;;;4973391;28;45486;-68
2023/06/22 03:56:47;;;;;;;;;5.00;4.00;;;;;;;;4975329;28;46434;-68
2023/06/22 03:59:13;;;;;;;;;3.50;3.50;;;;;;;;4975691;28;45385;-66
2023/06/22 04:01:38;;;;;;;;;4.25;3.50;;;;;;;;4975464;28;45361;-68
2023/06/22 04:04:03;;;;;;;;;5.50;4.75;;;;;;;;4974977;28;45397;-68
2023/06/22 04:06:28;;;;;;;;;4.00;4.00;;;;;;;;4975410;28;45419;-67
2023/06/22 04:08:54;;;;;;;;;5.25;4.00;;;;;;;;4974984;28;45337;-68
2023/06/22 04:11:19;;;;;;;;;4.00;4.00;;;;;;;;4975499;28;45520;-67
2023/06/22 04:13:44;;;;;;;;;5.00;3.00;;;;;;;;4975167;28;46154;-68
2023/06/22 04:16:09;;;;;;;;;4.25;4.25;;;;;;;;4975034;28;46998;-68
2023/06/22 04:18:35;;;;;;;;;6.00;4.50;;;;;;;;4975273;28;45540;-68
2023/06/22 04:21:00;;;;;;;;;8.00;4.00;;;;;;;;4975246;28;45372;-68
2023/06/22 04:23:25;;;;;;;;;5.25;4.00;;;;;;;;4974874;28;45484;-69
2023/06/22 04:25:51;;;;;;;;;3.50;3.50;;;;;;;;4976072;28;48107;-68
2023/06/22 04:28:16;;;;;;;;;6.25;4.75;;;;;;;;4978394;28;45351;-68
2023/06/22 04:30:46;;;;;;;;;4.50;4.50;;;;;;;;4978425;28;45497;-68
2023/06/22 04:33:15;;;;;;;;;3.25;3.25;;;;;;;;4978578;28;45332;-68
2023/06/22 04:35:41;;;;;;;;;5.00;4.00;;;;;;;;4978253;28;46674;-69
2023/06/22 04:38:06;;;;;;;;;5.00;5.00;;;;;;;;4978845;28;45313;-68
2023/06/22 04:40:32;;;;;;;;;3.00;3.00;;;;;;;;4978566;28;45670;-68
2023/06/22 04:42:57;;;;;;;;;7.00;4.25;;;;;;;;4978315;28;45333;-68
2023/06/22 04:45:22;;;;;;;;;7.00;6.75;;;;;;;;4978071;28;45319;-72
2023/06/22 04:47:47;;;;;;;;;5.00;5.00;;;;;;;;4978413;28;45338;-72
2023/06/22 04:50:13;;;;;;;;;6.75;5.50;;;;;;;;4977812;28;45319;-72
2023/06/22 04:52:38;;;;;;;;;6.75;5.50;;;;;;;;4977895;28;45191;-72
2023/06/22 04:55:03;;;;;;;;;2.25;2.25;;;;;;;;4977629;28;45194;-72
2023/06/22 04:57:32;;;;;;;;;6.00;5.25;;;;;;;;4977859;28;45397;-72
2023/06/22 04:59:57;;;;;;;;;6.00;5.00;;;;;;;;4978470;28;45417;-72
2023/06/22 05:02:27;;;;;;;;;5.75;5.25;;;;;;;;4978014;28;45666;-72
2023/06/22 05:04:56;;;;;;;;;5.25;4.25;;;;;;;;4977518;28;45368;-72
2023/06/22 05:07:25;;;;;;;;;6.25;5.25;;;;;;;;4978029;28;45427;-72
2023/06/22 05:09:50;;;;;;;;;5.25;5.25;;;;;;;;4977796;28;45346;-72
2023/06/22 05:12:15;;;;;;;;;7.75;5.00;;;;;;;;4977225;28;45391;-72
2023/06/22 05:14:41;;;;;;;;;7.00;7.00;;;;;;;;4977852;28;46270;-71
2023/06/22 05:17:13;;;;;;;;;5.75;5.00;;;;;;;;4977321;28;45425;-71
2023/06/22 05:19:38;;;;;;;;;7.00;7.00;;;;;;;;4977643;28;45423;-71
2023/06/22 05:22:03;;;;;;;;;5.00;5.00;;;;;;;;4977497;28;45465;-71
2023/06/22 05:24:28;;;;;;;;;7.00;5.25;;;;;;;;4977601;28;45419;-72
2023/06/22 05:26:54;;;;;;;;;6.75;6.75;;;;;;;;4977656;28;45349;-72
2023/06/22 05:29:19;;;;;;;;;5.25;5.25;;;;;;;;4977086;28;45352;-72
2023/06/22 05:31:44;;;;;;;;;7.25;7.00;;;;;;;;4977993;28;45670;-72
2023/06/22 05:34:10;;;;;;;;;6.75;5.50;;;;;;;;4976964;28;46462;-72
2023/06/22 05:36:35;;;;;;;;;10.75;7.25;;;;;;;;4977042;28;45317;-72
2023/06/22 05:39:11;;;;;;;;;11.50;8.00;;;;;;;;4977234;28;45537;-73
2023/06/22 05:41:36;;;;;;;;;8.50;8.25;;;;;;;;4977365;28;45460;-73
2023/06/22 05:44:01;;;;;;;;;11.75;10.25;;;;;;;;4977109;28;46319;-72
2023/06/22 05:46:27;;;;;;;;;10.25;9.25;;;;;;;;4977322;28;45304;-72
2023/06/22 05:48:52;;;;;;;;;14.00;10.00;;;;;;;;4976696;28;45341;-70
2023/06/22 05:51:17;;;;;;;;;10.50;10.50;;;;;;;;4977024;28;45334;-71
2023/06/22 05:53:44;;;;;;;;;13.00;11.25;;;;;;;;4972738;28;45469;-71
2023/06/22 05:56:09;;;;;;;;;13.25;11.75;;;;;;;;4989132;28;45577;-71
2023/06/22 05:58:35;;;;;;;;;13.00;10.75;;;;;;;;5003796;28;45396;-70
2023/06/22 06:01:00;;;;;;;;;10.75;10.25;;;;;;;;5011034;28;28414;-71
2023/06/22 06:03:28;;;;;;;;;14.50;13.25;;;;;;;;5011049;28;29257;-71
2023/06/22 06:05:53;;;;;;;;;12.25;11.25;;;;;;;;5029680;28;8880;-70
2023/06/22 06:08:19;;;;;;;;;11.75;10.75;;;;;;;;5030894;28;10200;-68
2023/06/22 06:10:44;;;;;;;;;16.00;15.00;;;;;;;;5008718;28;45385;-69
2023/06/22 06:13:09;;;;;;;;;14.25;14.25;;;;;;;;5016863;28;45297;-69
2023/06/22 06:15:34;;;;;;;;;14.50;12.50;;;;;;;;5007988;28;45290;-69
2023/06/22 06:18:00;;;;;;;;;14.75;12.25;;;;;;;;5007356;28;45510;-68
2023/06/22 06:20:27;;;;;;;;;17.00;16.25;;;;;;;;4996633;28;45455;-68
2023/06/22 06:22:52;;;;;;;;;18.25;17.00;;;;;;;;4998503;28;45728;-68
2023/06/22 06:25:19;;;;;;;;;13.75;13.75;;;;;;;;5005880;28;45421;-69
2023/06/22 06:27:49;;;;;;;;;13.75;13.75;;;;;;;;5011913;28;44693;-69
2023/06/22 06:30:15;;;;;;;;;17.75;14.50;;;;;;;;4995822;28;45333;-70
2023/06/22 06:32:40;;;;;;;;;18.00;16.00;;;;;;;;5003828;28;47199;-70
2023/06/22 06:35:06;;;;;;;;;13.75;13.75;;;;;;;;4996331;28;45316;-71
2023/06/22 06:37:33;;;;;;;;;19.00;16.00;;;;;;;;5004470;28;45322;-72
2023/06/22 06:39:58;;;;;;;;;20.00;15.50;;;;;;;;5011520;28;41015;-72
2023/06/22 06:42:24;;;;;;;;;20.75;17.25;;;;;;;;5003806;28;28453;-72
2023/06/22 06:44:49;;;;;;;;;17.00;15.25;;;;;;;;4991623;28;28475;-72
2023/06/22 06:47:15;;;;;;;;;21.50;21.00;;;;;;;;4991009;28;28461;-72
2023/06/22 06:49:40;;;;;;;;;18.50;17.75;;;;;;;;4991295;28;28488;-72
2023/06/22 06:52:05;;;;;;;;;21.50;18.50;;;;;;;;4991787;28;28594;-72
2023/06/22 06:54:31;;;;;;;;;24.50;22.50;;;;;;;;4979414;28;28405;-73
2023/06/22 06:56:56;;;;;;;;;28.00;23.00;;;;;;;;4972830;28;28350;-73
2023/06/22 06:59:21;;;;;;;;;23.00;21.25;;;;;;;;4971606;28;28406;-74
2023/06/22 07:01:48;;;;;;;;;19.25;19.25;;;;;;;;4968634;28;44731;-74
2023/06/22 07:04:13;;;;;;;;;21.50;21.50;;;;;;;;4959719;28;46001;-73
2023/06/22 07:06:39;;;;;;;;;26.75;23.00;;;;;;;;4955808;28;45547;-72
2023/06/22 07:09:04;;;;;;;;;21.50;19.75;;;;;;;;4955300;28;45557;-73
2023/06/22 07:11:29;;;;;;;;;20.50;19.50;;;;;;;;4970915;28;28492;-73
2023/06/22 07:13:54;;;;;;;;;25.00;20.75;;;;;;;;4969250;28;45373;-73
2023/06/22 07:16:19;;;;;;;;;33.25;26.25;;;;;;;;4966300;28;45378;-72
2023/06/22 07:18:45;;;;;;;;;24.75;23.50;;;;;;;;4972361;28;28476;-73
2023/06/22 07:21:10;;;;;;;;;23.00;21.25;;;;;;;;4971298;28;28467;-73
2023/06/22 07:23:35;;;;;;;;;29.20;24.00;;;;;;;;4925551;28;1265670;-72
2023/06/22 07:31:41;;;;;;;;;;;;;;;;;;658399;28;234068411;-72
2023/06/22 07:40:41;;;;;;;;;7.50;7.50;;;;;;;;2;279084943;279084943;-72
2023/06/22 07:48:39;;;;;;;;;34.50;23.50;;;;;;;;2;234070093;234070093;-72
2023/06/22 07:57:41;;;;;;;;;20.00;17.50;;;;;;;;2;279086118;279086118;-72
2023/06/22 08:05:38;;;;;;;;;31.50;23.50;;;;;;;;2;234072866;234072866;-73
2023/06/22 08:14:39;;;;;;;;;10.00;7.00;;;;;;;;2;279084366;279084366;-71
2023/06/22 08:20:59;;;;;;;;;22.50;22.50;;;;;;;;2;234071123;234071123;-71
2023/06/22 08:24:50;;;;;;;;;18.50;18.50;;;;;;;;225943;28;216859378;-71
2023/06/22 08:27:16;;;;;;;;;27.50;26.00;;;;;;;;2323570;28;77192402;-70
2023/06/22 08:29:42;;;;;;;;;21.75;21.75;;;;;;;;4989403;28;29736;-70
2023/06/22 08:32:08;;;;;;;;;25.75;22.75;;;;;;;;4989736;28;29172;-70
2023/06/22 08:34:34;;;;;;;;;24.25;22.25;;;;;;;;4990211;28;28491;-72
2023/06/22 08:36:59;;;;;;;;;26.50;22.00;;;;;;;;4973583;28;28868;-72
2023/06/22 08:39:25;;;;;;;;;27.50;27.50;;;;;;;;4969483;28;28512;-71
2023/06/22 08:41:50;;;;;;;;;22.75;21.00;;;;;;;;4971911;28;29449;-70
2023/06/22 08:44:18;;;;;;;;;23.25;21.50;;;;;;;;4989235;28;42050;-68
2023/06/22 08:46:43;;;;;;;;;25.25;20.00;;;;;;;;4977775;28;45376;-67
2023/06/22 08:49:09;;;;;;;;;25.25;22.75;;;;;;;;4974873;28;45374;-67
2023/06/22 08:51:34;;;;;;;;;30.00;23.25;;;;;;;;4975340;28;47057;-67
2023/06/22 08:54:00;;;;;;;;;32.25;26.25;;;;;;;;4974676;28;45464;-69
2023/06/22 08:56:25;;;;;;;;;24.50;20.75;;;;;;;;4980031;28;45367;-70
2023/06/22 08:58:50;;;;;;;;;24.00;20.50;;;;;;;;4975384;28;45290;-69
2023/06/22 09:01:15;;;;;;;;;22.25;21.75;;;;;;;;4974973;28;47289;-69
2023/06/22 09:03:41;;;;;;;;;19.75;19.75;;;;;;;;4980733;28;45348;-67
2023/06/22 09:06:06;;;;;;;;;19.50;18.00;;;;;;;;4987281;28;45318;-68
2023/06/22 09:08:31;;;;;;;;;22.75;17.25;;;;;;;;4974276;28;45535;-69
2023/06/22 09:10:57;;;;;;;;;20.25;17.25;;;;;;;;4974409;28;45376;-69
2023/06/22 09:13:22;;;;;;;;;22.00;22.00;;;;;;;;4979618;28;45377;-68
2023/06/22 09:15:47;;;;;;;;;21.75;18.75;;;;;;;;4980857;28;45345;-69
2023/06/22 09:18:13;;;;;;;;;23.00;22.00;;;;;;;;4978026;28;45432;-68
2023/06/22 09:20:38;;;;;;;;;19.00;17.75;;;;;;;;4982882;28;45294;-69
2023/06/22 09:26:14;;;;;;;;;;;;;;;;;;3264087;28;158138289;-69
2023/06/22 09:28:39;;;;;;;;;20.25;17.75;;;;;;;;4861709;28;2747419;-68
2023/06/22 09:31:04;;;;;;;;;18.25;18.25;;;;;;;;4979207;28;45270;-68
2023/06/22 09:33:29;;;;;;;;;21.50;19.25;;;;;;;;4977520;28;46307;-68
2023/06/22 09:35:56;;;;;;;;;25.25;21.50;;;;;;;;4977776;28;45471;-68
2023/06/22 09:38:21;;;;;;;;;20.50;19.75;;;;;;;;4978177;28;45468;-68
2023/06/22 09:40:46;;;;;;;;;19.75;18.25;;;;;;;;4977376;28;45416;-68
2023/06/22 09:43:12;;;;;;;;;24.00;20.75;;;;;;;;4977507;28;46202;-67
2023/06/22 09:45:37;;;;;;;;;19.25;19.25;;;;;;;;4977506;28;45396;-68
2023/06/22 09:48:02;;;;;;;;;21.25;19.25;;;;;;;;4963966;28;45441;-68
2023/06/22 09:50:27;;;;;;;;;19.25;19.00;;;;;;;;4981111;28;45464;-67
2023/06/22 09:52:54;;;;;;;;;19.75;19.25;;;;;;;;4980176;28;46207;-67
2023/06/22 09:55:20;;;;;;;;;21.25;17.25;;;;;;;;4977209;28;45473;-68
2023/06/22 09:57:45;;;;;;;;;17.75;17.25;;;;;;;;4976244;28;45368;-68
2023/06/22 10:00:13;;;;;;;;;21.00;16.00;;;;;;;;4982213;28;45365;-67
2023/06/22 10:02:38;;;;;;;;;19.50;18.25;;;;;;;;4981117;28;46181;-67
2023/06/22 10:05:04;;;;;;;;;18.50;18.25;;;;;;;;4977617;28;45425;-68
2023/06/22 10:07:29;;;;;;;;;22.50;19.50;;;;;;;;4984696;28;45493;-67
2023/06/22 10:09:54;;;;;;;;;19.00;18.50;;;;;;;;4976968;28;45397;-68
2023/06/22 10:12:19;;;;;;;;;15.50;15.50;;;;;;;;4977231;28;46126;-68
2023/06/22 10:14:44;;;;;;;;;17.50;15.50;;;;;;;;4975299;28;45440;-66
2023/06/22 10:17:10;;;;;;;;;16.00;16.00;;;;;;;;4957527;28;45345;-68
2023/06/22 10:19:37;;;;;;;;;17.25;17.00;;;;;;;;4957898;28;45451;-68
2023/06/22 10:22:02;;;;;;;;;16.50;15.00;;;;;;;;4956795;28;46660;-66
2023/06/22 10:24:27;;;;;;;;;16.75;16.00;;;;;;;;4983728;28;45416;-66
2023/06/22 10:26:53;;;;;;;;;17.25;16.00;;;;;;;;4957640;28;45326;-67
2023/06/22 10:29:18;;;;;;;;;21.00;20.75;;;;;;;;4957330;28;45336;-67
2023/06/22 10:31:43;;;;;;;;;21.00;16.25;;;;;;;;4957374;28;46150;-67
2023/06/22 10:34:08;;;;;;;;;16.75;16.75;;;;;;;;4957498;28;45258;-67
2023/06/22 10:36:34;;;;;;;;;19.00;17.75;;;;;;;;4957282;28;45313;-66
2023/06/22 10:38:59;;;;;;;;;14.75;13.50;;;;;;;;4957414;28;45374;-66
2023/06/22 10:41:24;;;;;;;;;19.25;18.00;;;;;;;;4957281;28;47115;-66
2023/06/22 10:43:49;;;;;;;;;19.75;18.25;;;;;;;;4975923;28;45393;-67
2023/06/22 10:46:15;;;;;;;;;17.50;17.50;;;;;;;;4976793;28;45270;-66
2023/06/22 10:48:40;;;;;;;;;18.25;14.50;;;;;;;;4976702;28;45333;-66
2023/06/22 10:51:05;;;;;;;;;13.50;13.50;;;;;;;;4976711;28;45390;-66
2023/06/22 10:53:30;;;;;;;;;15.75;14.25;;;;;;;;4976265;28;45304;-66
2023/06/22 10:55:55;;;;;;;;;13.00;13.00;;;;;;;;4975179;28;45566;-66
2023/06/22 10:58:21;;;;;;;;;13.25;12.75;;;;;;;;4966687;28;45393;-66
2023/06/22 11:00:46;;;;;;;;;14.50;13.50;;;;;;;;4965252;28;45400;-66
2023/06/22 11:03:12;;;;;;;;;13.25;13.25;;;;;;;;4966276;28;45548;-66
2023/06/22 11:05:37;;;;;;;;;15.00;13.75;;;;;;;;4966738;28;45350;-66
2023/06/22 11:08:02;;;;;;;;;13.25;11.75;;;;;;;;4962244;28;45297;-66
2023/06/22 11:10:27;;;;;;;;;12.50;12.50;;;;;;;;4956850;28;46072;-66
2023/06/22 11:12:53;;;;;;;;;14.00;13.00;;;;;;;;4956955;28;45449;-66
2023/06/22 11:15:18;;;;;;;;;17.75;16.75;;;;;;;;4956756;28;45268;-66
2023/06/22 11:17:43;;;;;;;;;13.25;12.25;;;;;;;;4957123;28;45338;-66
2023/06/22 11:20:10;;;;;;;;;11.25;11.25;;;;;;;;4957342;28;46935;-66
2023/06/22 11:22:36;;;;;;;;;13.00;10.25;;;;;;;;4966739;28;45481;-66
2023/06/22 11:25:01;;;;;;;;;17.25;14.50;;;;;;;;4970937;28;45768;-66
2023/06/22 11:27:26;;;;;;;;;16.00;13.50;;;;;;;;4966725;28;45441;-66
2023/06/22 11:29:52;;;;;;;;;12.00;11.00;;;;;;;;4964644;28;46317;-66
2023/06/22 11:32:18;;;;;;;;;13.00;12.00;;;;;;;;4966074;28;45588;-66
2023/06/22 11:34:43;;;;;;;;;6.25;6.00;;;;;;;;4965856;28;45518;-66
2023/06/22 11:37:08;;;;;;;;;12.00;11.75;;;;;;;;4962198;28;46188;-66
2023/06/22 11:39:33;;;;;;;;;10.00;9.50;;;;;;;;4955185;28;48665;-66
2023/06/22 11:41:58;;;;;;;;;8.75;8.25;;;;;;;;4959995;28;45389;-66
2023/06/22 11:44:24;;;;;;;;;12.75;10.50;;;;;;;;4976324;28;45420;-66
2023/06/22 11:46:49;;;;;;;;;10.00;10.00;;;;;;;;4975902;28;45509;-67
2023/06/22 11:49:14;;;;;;;;;14.50;13.25;;;;;;;;4975863;28;46235;-67
2023/06/22 11:51:39;;;;;;;;;10.25;10.25;;;;;;;;4972514;28;45334;-67
2023/06/22 11:54:04;;;;;;;;;9.75;8.75;;;;;;;;4963607;28;45427;-66
2023/06/22 11:56:30;;;;;;;;;13.00;11.75;;;;;;;;4956277;28;45417;-66
2023/06/22 11:58:55;;;;;;;;;13.50;12.50;;;;;;;;4956238;28;45420;-66
2023/06/22 12:01:21;;;;;;;;;10.50;9.25;;;;;;;;4956066;28;45594;-66
2023/06/22 12:03:46;;;;;;;;;10.50;9.75;;;;;;;;4956211;28;45457;-67
2023/06/22 12:06:11;;;;;;;;;11.00;10.00;;;;;;;;4956322;28;45357;-67
2023/06/22 12:08:37;;;;;;;;;12.25;12.25;;;;;;;;4956080;28;46177;-67
2023/06/22 12:11:02;;;;;;;;;11.50;11.50;;;;;;;;4956261;28;45371;-66
2023/06/22 12:13:27;;;;;;;;;14.00;12.50;;;;;;;;4956073;28;45397;-67
2023/06/22 12:15:53;;;;;;;;;12.75;12.00;;;;;;;;4954587;28;45413;-67
2023/06/22 12:18:20;;;;;;;;;14.50;13.50;;;;;;;;4956240;28;46069;-67
2023/06/22 12:20:45;;;;;;;;;10.75;10.50;;;;;;;;4955853;28;45453;-66
2023/06/22 12:23:11;;;;;;;;;10.00;10.00;;;;;;;;4955883;28;45347;-66
2023/06/22 12:25:36;;;;;;;;;14.00;12.25;;;;;;;;4956299;28;45435;-67
2023/06/22 12:28:01;;;;;;;;;15.50;12.75;;;;;;;;4955941;28;47211;-66
2023/06/22 12:30:26;;;;;;;;;10.50;10.50;;;;;;;;4955948;28;45428;-67
2023/06/22 12:32:51;;;;;;;;;13.00;11.50;;;;;;;;4956129;28;45350;-67
2023/06/22 12:35:17;;;;;;;;;11.75;9.25;;;;;;;;4955633;28;45306;-67
2023/06/22 12:37:42;;;;;;;;;12.00;11.50;;;;;;;;4955653;28;46139;-67
2023/06/22 12:40:08;;;;;;;;;11.75;9.75;;;;;;;;4955868;28;45359;-66
2023/06/22 12:42:33;;;;;;;;;10.00;10.00;;;;;;;;4964607;28;45225;-67
2023/06/22 12:44:58;;;;;;;;;13.25;11.75;;;;;;;;4975335;28;45482;-67
2023/06/22 12:47:23;;;;;;;;;11.75;11.75;;;;;;;;4978060;28;46540;-67
2023/06/22 12:49:48;;;;;;;;;10.50;10.50;;;;;;;;4977110;28;45346;-66
2023/06/22 12:52:14;;;;;;;;;10.00;10.00;;;;;;;;4978601;28;45474;-66
2023/06/22 12:54:39;;;;;;;;;15.00;15.00;;;;;;;;4978351;28;45212;-68
2023/06/22 12:57:04;;;;;;;;;12.00;12.00;;;;;;;;4977287;28;46337;-68
2023/06/22 12:59:30;;;;;;;;;17.50;15.75;;;;;;;;4978478;28;45423;-68
2023/06/22 13:01:55;;;;;;;;;18.50;13.50;;;;;;;;4961115;28;45563;-70
2023/06/22 13:04:21;;;;;;;;;16.25;14.50;;;;;;;;4978565;28;45374;-69
2023/06/22 13:06:47;;;;;;;;;12.75;12.75;;;;;;;;4978579;28;45845;-69
2023/06/22 13:09:13;;;;;;;;;15.25;15.00;;;;;;;;4978248;28;45320;-69
2023/06/22 13:11:38;;;;;;;;;16.00;14.50;;;;;;;;4978350;28;45425;-69
2023/06/22 13:14:03;;;;;;;;;11.00;11.00;;;;;;;;4959738;28;45421;-69
2023/06/22 13:16:29;;;;;;;;;14.00;13.25;;;;;;;;4958268;28;46360;-68
2023/06/22 13:18:54;;;;;;;;;15.00;15.00;;;;;;;;4958559;28;45366;-69
2023/06/22 13:21:19;;;;;;;;;12.50;12.50;;;;;;;;4958789;28;45394;-69
2023/06/22 13:23:44;;;;;;;;;18.00;15.25;;;;;;;;4957471;28;45521;-68
2023/06/22 13:26:09;;;;;;;;;17.75;16.50;;;;;;;;4958578;28;47083;-68
2023/06/22 13:28:34;;;;;;;;;19.00;17.00;;;;;;;;4958586;28;45311;-67
2023/06/22 13:31:00;;;;;;;;;12.25;10.75;;;;;;;;4958837;28;45444;-67
2023/06/22 13:33:25;;;;;;;;;14.25;12.50;;;;;;;;4958262;28;45295;-66
2023/06/22 13:35:50;;;;;;;;;14.00;14.00;;;;;;;;4958101;28;45475;-67
2023/06/22 13:38:17;;;;;;;;;13.75;13.75;;;;;;;;4958584;28;45454;-67
2023/06/22 13:40:42;;;;;;;;;12.50;12.50;;;;;;;;4958570;28;45470;-67
2023/06/22 13:43:08;;;;;;;;;14.00;14.00;;;;;;;;4971272;28;45461;-67
2023/06/22 13:45:33;;;;;;;;;13.00;12.00;;;;;;;;4977905;28;46393;-67
2023/06/22 13:47:58;;;;;;;;;14.75;11.75;;;;;;;;4977761;28;45369;-67
2023/06/22 13:50:24;;;;;;;;;8.75;8.75;;;;;;;;4977014;28;45336;-69
2023/06/22 13:52:49;;;;;;;;;13.00;12.25;;;;;;;;4977938;28;45515;-67
2023/06/22 13:55:14;;;;;;;;;12.75;11.50;;;;;;;;4977389;28;46122;-66
2023/06/22 13:57:40;;;;;;;;;10.00;9.50;;;;;;;;4988483;28;45432;-67
2023/06/22 14:00:05;;;;;;;;;11.75;11.75;;;;;;;;4996963;28;45420;-66
2023/06/22 14:02:31;;;;;;;;;12.50;11.75;;;;;;;;4994833;28;45595;-67
2023/06/22 14:04:56;;;;;;;;;11.25;11.25;;;;;;;;4996202;28;47109;-66
2023/06/22 14:07:21;;;;;;;;;9.25;8.25;;;;;;;;4997162;28;46143;-66
2023/06/22 14:09:46;;;;;;;;;10.25;10.25;;;;;;;;4996990;28;45324;-66
2023/06/22 14:12:12;;;;;;;;;8.50;8.50;;;;;;;;4996762;28;45438;-66
2023/06/22 14:14:37;;;;;;;;;9.75;8.50;;;;;;;;4996968;28;45636;-66
2023/06/22 14:17:03;;;;;;;;;6.25;6.25;;;;;;;;4996428;28;45504;-66
2023/06/22 14:19:29;;;;;;;;;8.25;7.00;;;;;;;;4996941;28;45428;-66
2023/06/22 14:21:54;;;;;;;;;6.00;6.00;;;;;;;;4996737;28;45455;-67
2023/06/22 14:24:19;;;;;;;;;9.00;7.00;;;;;;;;4996673;28;46321;-66
2023/06/22 14:26:44;;;;;;;;;9.00;5.75;;;;;;;;4996617;28;45413;-66
2023/06/22 14:29:10;;;;;;;;;8.50;7.00;;;;;;;;4996851;28;45352;-67
2023/06/22 14:31:35;;;;;;;;;6.00;6.00;;;;;;;;4996613;28;45540;-67
2023/06/22 14:34:02;;;;;;;;;7.00;6.00;;;;;;;;4996731;28;46307;-67
2023/06/22 14:36:27;;;;;;;;;6.25;5.00;;;;;;;;4996095;28;45304;-66
2023/06/22 14:38:52;;;;;;;;;7.25;6.00;;;;;;;;4995483;28;45341;-66
2023/06/22 14:41:18;;;;;;;;;5.00;5.00;;;;;;;;4995273;28;45469;-68
2023/06/22 14:43:44;;;;;;;;;5.75;4.25;;;;;;;;4983536;28;48169;-68
2023/06/22 14:46:09;;;;;;;;;5.00;5.00;;;;;;;;4992001;28;28349;-68
2023/06/22 14:48:35;;;;;;;;;4.25;3.00;;;;;;;;4983535;28;115382;-67
2023/06/22 14:51:00;;;;;;;;;5.50;5.50;;;;;;;;4977032;28;45579;-67
2023/06/22 14:53:26;;;;;;;;;5.50;5.00;;;;;;;;4976377;28;45293;-67
2023/06/22 14:55:51;;;;;;;;;6.25;5.00;;;;;;;;4976092;28;45347;-67
2023/06/22 14:58:16;;;;;;;;;4.50;4.50;;;;;;;;4213520;28;15494449;-67
2023/06/22 15:00:41;;;;;;;;;43.40;37.60;;;;;;;;4966533;28;45529;-67
2023/06/22 15:03:11;;;;;;;;;12.25;12.25;;;;;;;;4966575;28;45608;-68
2023/06/22 15:05:36;;;;;;;;;3.00;3.00;;;;;;;;4964028;28;45850;-67